sensor_id;sensor_type;location;lat;lon;timestamp;P1;durP1;ratioP1;P2;durP2;ratioP2
59876;SDS011;74472;51.140;17.184;2024-03-08T00:01:34;43.55;;;25.85;;
59876;SDS011;74472;51.140;17.184;2024-03-08T00:04:00;48.35;;;26.05;;
59876;SDS011;74472;51.140;17.184;2024-03-08T00:06:25;43.15;;;27.08;;
59876;SDS011;74472;51.140;17.184;2024-03-08T00:08:50;43.13;;;26.15;;
59876;SDS011;74472;51.140;17.184;2024-03-08T00:11:16;46.85;;;28.05;;
59876;SDS011;74472;51.140;17.184;2024-03-08T00:13:41;40.78;;;25.05;;
59876;SDS011;74472;51.140;17.184;2024-03-08T00:16:06;41.55;;;25.95;;
59876;SDS011;74472;51.140;17.184;2024-03-08T00:18:34;45.33;;;25.42;;
59876;SDS011;74472;51.140;17.184;2024-03-08T00:20:59;42.25;;;24.23;;
59876;SDS011;74472;51.140;17.184;2024-03-08T00:23:25;35.85;;;23.98;;
59876;SDS011;74472;51.140;17.184;2024-03-08T00:25:50;43.83;;;24.90;;
59876;SDS011;74472;51.140;17.184;2024-03-08T00:28:16;46.28;;;26.50;;
59876;SDS011;74472;51.140;17.184;2024-03-08T00:30:43;41.50;;;23.90;;
59876;SDS011;74472;51.140;17.184;2024-03-08T00:33:10;40.28;;;23.92;;
59876;SDS011;74472;51.140;17.184;2024-03-08T00:35:35;45.47;;;26.45;;
59876;SDS011;74472;51.140;17.184;2024-03-08T00:38:01;44.05;;;26.33;;
59876;SDS011;74472;51.140;17.184;2024-03-08T00:40:26;44.50;;;24.52;;
59876;SDS011;74472;51.140;17.184;2024-03-08T00:42:51;47.15;;;28.30;;
59876;SDS011;74472;51.140;17.184;2024-03-08T00:45:18;46.45;;;27.35;;
59876;SDS011;74472;51.140;17.184;2024-03-08T00:47:43;44.35;;;27.00;;
59876;SDS011;74472;51.140;17.184;2024-03-08T00:50:09;51.20;;;26.33;;
59876;SDS011;74472;51.140;17.184;2024-03-08T00:52:34;51.28;;;28.58;;
59876;SDS011;74472;51.140;17.184;2024-03-08T00:55:00;45.80;;;26.45;;
59876;SDS011;74472;51.140;17.184;2024-03-08T00:57:25;53.13;;;29.67;;
59876;SDS011;74472;51.140;17.184;2024-03-08T00:59:51;47.50;;;27.77;;
59876;SDS011;74472;51.140;17.184;2024-03-08T01:02:17;42.20;;;25.95;;
59876;SDS011;74472;51.140;17.184;2024-03-08T01:04:44;44.22;;;24.30;;
59876;SDS011;74472;51.140;17.184;2024-03-08T01:07:09;43.60;;;26.35;;
59876;SDS011;74472;51.140;17.184;2024-03-08T01:09:35;42.53;;;24.90;;
59876;SDS011;74472;51.140;17.184;2024-03-08T01:12:01;44.25;;;25.20;;
59876;SDS011;74472;51.140;17.184;2024-03-08T01:14:26;44.13;;;25.45;;
59876;SDS011;74472;51.140;17.184;2024-03-08T01:16:51;38.78;;;23.42;;
59876;SDS011;74472;51.140;17.184;2024-03-08T01:19:17;43.10;;;25.13;;
59876;SDS011;74472;51.140;17.184;2024-03-08T01:21:42;42.00;;;25.25;;
59876;SDS011;74472;51.140;17.184;2024-03-08T01:24:08;37.60;;;24.60;;
59876;SDS011;74472;51.140;17.184;2024-03-08T01:26:33;43.17;;;23.90;;
59876;SDS011;74472;51.140;17.184;2024-03-08T01:29:01;42.40;;;24.40;;
59876;SDS011;74472;51.140;17.184;2024-03-08T01:31:28;45.97;;;26.05;;
59876;SDS011;74472;51.140;17.184;2024-03-08T01:33:54;40.38;;;25.33;;
59876;SDS011;74472;51.140;17.184;2024-03-08T01:36:20;40.08;;;24.42;;
59876;SDS011;74472;51.140;17.184;2024-03-08T01:38:46;41.05;;;25.55;;
59876;SDS011;74472;51.140;17.184;2024-03-08T01:41:11;42.00;;;23.42;;
59876;SDS011;74472;51.140;17.184;2024-03-08T01:43:38;44.78;;;25.30;;
59876;SDS011;74472;51.140;17.184;2024-03-08T01:46:03;37.38;;;24.65;;
59876;SDS011;74472;51.140;17.184;2024-03-08T01:48:30;42.97;;;24.55;;
59876;SDS011;74472;51.140;17.184;2024-03-08T01:50:56;39.03;;;24.75;;
59876;SDS011;74472;51.140;17.184;2024-03-08T01:53:23;41.90;;;25.05;;
59876;SDS011;74472;51.140;17.184;2024-03-08T01:55:49;44.03;;;24.42;;
59876;SDS011;74472;51.140;17.184;2024-03-08T01:58:17;43.90;;;26.13;;
59876;SDS011;74472;51.140;17.184;2024-03-08T02:00:45;42.70;;;26.73;;
59876;SDS011;74472;51.140;17.184;2024-03-08T02:03:14;45.60;;;25.80;;
59876;SDS011;74472;51.140;17.184;2024-03-08T02:05:42;42.13;;;26.13;;
59876;SDS011;74472;51.140;17.184;2024-03-08T02:08:08;44.38;;;26.23;;
59876;SDS011;74472;51.140;17.184;2024-03-08T02:10:38;46.55;;;25.50;;
59876;SDS011;74472;51.140;17.184;2024-03-08T02:13:04;39.55;;;24.77;;
59876;SDS011;74472;51.140;17.184;2024-03-08T02:18:21;48.45;;;24.88;;
59876;SDS011;74472;51.140;17.184;2024-03-08T02:20:53;39.47;;;25.48;;
59876;SDS011;74472;51.140;17.184;2024-03-08T02:23:23;40.05;;;23.70;;
59876;SDS011;74472;51.140;17.184;2024-03-08T02:25:50;42.08;;;25.77;;
59876;SDS011;74472;51.140;17.184;2024-03-08T02:28:15;39.13;;;24.13;;
59876;SDS011;74472;51.140;17.184;2024-03-08T02:30:43;40.53;;;24.70;;
59876;SDS011;74472;51.140;17.184;2024-03-08T02:33:09;41.78;;;23.95;;
59876;SDS011;74472;51.140;17.184;2024-03-08T02:35:34;42.33;;;24.00;;
59876;SDS011;74472;51.140;17.184;2024-03-08T02:38:01;39.22;;;23.73;;
59876;SDS011;74472;51.140;17.184;2024-03-08T02:40:29;39.85;;;22.73;;
59876;SDS011;74472;51.140;17.184;2024-03-08T02:42:54;44.53;;;24.08;;
59876;SDS011;74472;51.140;17.184;2024-03-08T02:45:20;40.85;;;22.20;;
59876;SDS011;74472;51.140;17.184;2024-03-08T02:47:45;37.22;;;22.55;;
59876;SDS011;74472;51.140;17.184;2024-03-08T02:50:11;44.08;;;23.98;;
59876;SDS011;74472;51.140;17.184;2024-03-08T02:52:36;37.75;;;22.55;;
59876;SDS011;74472;51.140;17.184;2024-03-08T02:55:02;36.05;;;21.15;;
59876;SDS011;74472;51.140;17.184;2024-03-08T02:57:27;39.95;;;22.17;;
59876;SDS011;74472;51.140;17.184;2024-03-08T02:59:53;38.45;;;22.27;;
59876;SDS011;74472;51.140;17.184;2024-03-08T03:02:19;40.47;;;23.23;;
59876;SDS011;74472;51.140;17.184;2024-03-08T03:04:44;40.13;;;22.27;;
59876;SDS011;74472;51.140;17.184;2024-03-08T03:07:10;41.10;;;23.40;;
59876;SDS011;74472;51.140;17.184;2024-03-08T03:09:36;40.08;;;23.55;;
59876;SDS011;74472;51.140;17.184;2024-03-08T03:12:01;42.08;;;23.80;;
59876;SDS011;74472;51.140;17.184;2024-03-08T03:14:27;39.40;;;22.98;;
59876;SDS011;74472;51.140;17.184;2024-03-08T03:16:53;43.55;;;22.65;;
59876;SDS011;74472;51.140;17.184;2024-03-08T03:19:19;42.03;;;24.40;;
59876;SDS011;74472;51.140;17.184;2024-03-08T03:21:45;39.67;;;22.88;;
59876;SDS011;74472;51.140;17.184;2024-03-08T03:24:10;41.83;;;23.13;;
59876;SDS011;74472;51.140;17.184;2024-03-08T03:26:37;37.40;;;21.95;;
59876;SDS011;74472;51.140;17.184;2024-03-08T03:29:05;36.95;;;21.77;;
59876;SDS011;74472;51.140;17.184;2024-03-08T03:31:31;40.42;;;23.73;;
59876;SDS011;74472;51.140;17.184;2024-03-08T03:33:57;38.90;;;22.13;;
59876;SDS011;74472;51.140;17.184;2024-03-08T03:36:27;38.67;;;22.17;;
59876;SDS011;74472;51.140;17.184;2024-03-08T03:38:53;45.47;;;24.15;;
59876;SDS011;74472;51.140;17.184;2024-03-08T03:41:32;39.03;;;23.08;;
59876;SDS011;74472;51.140;17.184;2024-03-08T03:43:57;34.30;;;22.40;;
59876;SDS011;74472;51.140;17.184;2024-03-08T03:46:23;40.95;;;23.98;;
59876;SDS011;74472;51.140;17.184;2024-03-08T03:48:48;33.10;;;21.27;;
59876;SDS011;74472;51.140;17.184;2024-03-08T03:51:13;38.95;;;22.33;;
59876;SDS011;74472;51.140;17.184;2024-03-08T03:53:40;37.15;;;20.88;;
59876;SDS011;74472;51.140;17.184;2024-03-08T03:56:06;36.47;;;23.05;;
59876;SDS011;74472;51.140;17.184;2024-03-08T03:58:32;38.95;;;22.40;;
59876;SDS011;74472;51.140;17.184;2024-03-08T04:00:58;41.40;;;21.52;;
59876;SDS011;74472;51.140;17.184;2024-03-08T04:03:23;41.65;;;22.77;;
59876;SDS011;74472;51.140;17.184;2024-03-08T04:05:48;41.92;;;23.60;;
59876;SDS011;74472;51.140;17.184;2024-03-08T04:08:14;40.20;;;22.95;;
59876;SDS011;74472;51.140;17.184;2024-03-08T04:10:39;33.58;;;21.27;;
59876;SDS011;74472;51.140;17.184;2024-03-08T04:13:06;35.28;;;21.65;;
59876;SDS011;74472;51.140;17.184;2024-03-08T04:15:32;41.63;;;22.10;;
59876;SDS011;74472;51.140;17.184;2024-03-08T04:17:57;36.90;;;20.77;;
59876;SDS011;74472;51.140;17.184;2024-03-08T04:20:22;41.08;;;23.15;;
59876;SDS011;74472;51.140;17.184;2024-03-08T04:22:50;41.95;;;23.83;;
59876;SDS011;74472;51.140;17.184;2024-03-08T04:25:16;43.85;;;25.23;;
59876;SDS011;74472;51.140;17.184;2024-03-08T04:27:41;46.25;;;25.05;;
59876;SDS011;74472;51.140;17.184;2024-03-08T04:30:07;43.50;;;24.60;;
59876;SDS011;74472;51.140;17.184;2024-03-08T04:32:32;42.30;;;26.15;;
59876;SDS011;74472;51.140;17.184;2024-03-08T04:34:58;46.60;;;26.13;;
59876;SDS011;74472;51.140;17.184;2024-03-08T04:37:23;45.88;;;25.48;;
59876;SDS011;74472;51.140;17.184;2024-03-08T04:39:50;43.83;;;24.85;;
59876;SDS011;74472;51.140;17.184;2024-03-08T04:42:15;42.05;;;22.73;;
59876;SDS011;74472;51.140;17.184;2024-03-08T04:44:42;41.10;;;23.92;;
59876;SDS011;74472;51.140;17.184;2024-03-08T04:47:08;42.75;;;22.75;;
59876;SDS011;74472;51.140;17.184;2024-03-08T04:49:33;38.72;;;23.58;;
59876;SDS011;74472;51.140;17.184;2024-03-08T04:52:04;41.33;;;24.50;;
59876;SDS011;74472;51.140;17.184;2024-03-08T04:54:30;46.22;;;25.52;;
59876;SDS011;74472;51.140;17.184;2024-03-08T04:56:56;40.50;;;25.20;;
59876;SDS011;74472;51.140;17.184;2024-03-08T04:59:21;42.00;;;24.13;;
59876;SDS011;74472;51.140;17.184;2024-03-08T05:01:47;45.22;;;24.45;;
59876;SDS011;74472;51.140;17.184;2024-03-08T05:04:12;42.03;;;25.02;;
59876;SDS011;74472;51.140;17.184;2024-03-08T05:06:38;43.08;;;24.65;;
59876;SDS011;74472;51.140;17.184;2024-03-08T05:09:03;44.72;;;25.23;;
59876;SDS011;74472;51.140;17.184;2024-03-08T05:11:44;50.00;;;25.63;;
59876;SDS011;74472;51.140;17.184;2024-03-08T05:14:10;43.90;;;25.02;;
59876;SDS011;74472;51.140;17.184;2024-03-08T05:16:37;40.80;;;25.17;;
59876;SDS011;74472;51.140;17.184;2024-03-08T05:19:02;42.10;;;25.63;;
59876;SDS011;74472;51.140;17.184;2024-03-08T05:21:28;46.45;;;25.50;;
59876;SDS011;74472;51.140;17.184;2024-03-08T05:23:54;47.17;;;26.00;;
59876;SDS011;74472;51.140;17.184;2024-03-08T05:26:19;44.38;;;26.33;;
59876;SDS011;74472;51.140;17.184;2024-03-08T05:28:44;46.97;;;25.60;;
59876;SDS011;74472;51.140;17.184;2024-03-08T05:31:10;48.95;;;28.40;;
59876;SDS011;74472;51.140;17.184;2024-03-08T05:33:35;43.95;;;26.58;;
59876;SDS011;74472;51.140;17.184;2024-03-08T05:36:00;43.10;;;27.23;;
59876;SDS011;74472;51.140;17.184;2024-03-08T05:38:27;44.45;;;25.63;;
59876;SDS011;74472;51.140;17.184;2024-03-08T05:40:53;48.95;;;27.77;;
59876;SDS011;74472;51.140;17.184;2024-03-08T05:43:19;52.00;;;29.25;;
59876;SDS011;74472;51.140;17.184;2024-03-08T05:45:45;44.85;;;25.88;;
59876;SDS011;74472;51.140;17.184;2024-03-08T05:48:10;43.70;;;24.35;;
59876;SDS011;74472;51.140;17.184;2024-03-08T05:50:37;45.13;;;24.02;;
59876;SDS011;74472;51.140;17.184;2024-03-08T05:53:03;42.45;;;25.38;;
59876;SDS011;74472;51.140;17.184;2024-03-08T05:55:31;44.28;;;24.75;;
59876;SDS011;74472;51.140;17.184;2024-03-08T05:58:00;47.60;;;26.77;;
59876;SDS011;74472;51.140;17.184;2024-03-08T06:00:28;44.50;;;25.55;;
59876;SDS011;74472;51.140;17.184;2024-03-08T06:02:53;46.25;;;27.02;;
59876;SDS011;74472;51.140;17.184;2024-03-08T06:05:18;42.63;;;25.35;;
59876;SDS011;74472;51.140;17.184;2024-03-08T06:07:44;44.90;;;24.60;;
59876;SDS011;74472;51.140;17.184;2024-03-08T06:10:10;45.42;;;26.48;;
59876;SDS011;74472;51.140;17.184;2024-03-08T06:12:37;42.47;;;25.27;;
59876;SDS011;74472;51.140;17.184;2024-03-08T06:15:09;40.85;;;26.13;;
59876;SDS011;74472;51.140;17.184;2024-03-08T06:17:37;47.58;;;25.92;;
59876;SDS011;74472;51.140;17.184;2024-03-08T06:20:03;53.45;;;28.80;;
59876;SDS011;74472;51.140;17.184;2024-03-08T06:22:35;46.77;;;27.70;;
59876;SDS011;74472;51.140;17.184;2024-03-08T06:25:00;52.92;;;28.00;;
59876;SDS011;74472;51.140;17.184;2024-03-08T06:27:26;48.60;;;26.92;;
59876;SDS011;74472;51.140;17.184;2024-03-08T06:29:51;42.08;;;24.73;;
59876;SDS011;74472;51.140;17.184;2024-03-08T06:32:16;45.95;;;26.65;;
59876;SDS011;74472;51.140;17.184;2024-03-08T06:34:42;47.97;;;26.13;;
59876;SDS011;74472;51.140;17.184;2024-03-08T06:37:07;48.10;;;26.35;;
59876;SDS011;74472;51.140;17.184;2024-03-08T06:39:32;41.00;;;23.65;;
59876;SDS011;74472;51.140;17.184;2024-03-08T06:41:59;44.20;;;24.45;;
59876;SDS011;74472;51.140;17.184;2024-03-08T06:44:25;43.65;;;26.80;;
59876;SDS011;74472;51.140;17.184;2024-03-08T06:46:50;45.33;;;27.25;;
59876;SDS011;74472;51.140;17.184;2024-03-08T06:49:16;44.72;;;24.65;;
59876;SDS011;74472;51.140;17.184;2024-03-08T06:51:41;39.20;;;24.08;;
59876;SDS011;74472;51.140;17.184;2024-03-08T06:54:06;41.85;;;24.77;;
59876;SDS011;74472;51.140;17.184;2024-03-08T06:56:34;42.50;;;23.70;;
59876;SDS011;74472;51.140;17.184;2024-03-08T06:59:00;44.70;;;24.70;;
59876;SDS011;74472;51.140;17.184;2024-03-08T07:01:25;41.97;;;24.48;;
59876;SDS011;74472;51.140;17.184;2024-03-08T07:03:50;48.42;;;26.20;;
59876;SDS011;74472;51.140;17.184;2024-03-08T07:06:17;42.33;;;23.85;;
59876;SDS011;74472;51.140;17.184;2024-03-08T07:08:44;41.90;;;24.88;;
59876;SDS011;74472;51.140;17.184;2024-03-08T07:11:11;41.97;;;23.73;;
59876;SDS011;74472;51.140;17.184;2024-03-08T07:13:36;43.15;;;24.83;;
59876;SDS011;74472;51.140;17.184;2024-03-08T07:16:03;38.65;;;23.88;;
59876;SDS011;74472;51.140;17.184;2024-03-08T07:18:29;37.95;;;23.27;;
59876;SDS011;74472;51.140;17.184;2024-03-08T07:20:55;39.65;;;22.75;;
59876;SDS011;74472;51.140;17.184;2024-03-08T07:23:20;42.17;;;21.77;;
59876;SDS011;74472;51.140;17.184;2024-03-08T07:26:04;38.33;;;22.70;;
59876;SDS011;74472;51.140;17.184;2024-03-08T07:28:29;41.60;;;23.58;;
59876;SDS011;74472;51.140;17.184;2024-03-08T07:30:55;41.67;;;22.40;;
59876;SDS011;74472;51.140;17.184;2024-03-08T07:33:34;40.08;;;23.30;;
59876;SDS011;74472;51.140;17.184;2024-03-08T07:36:00;35.95;;;21.92;;
59876;SDS011;74472;51.140;17.184;2024-03-08T07:38:26;40.20;;;23.10;;
59876;SDS011;74472;51.140;17.184;2024-03-08T07:40:51;36.92;;;22.52;;
59876;SDS011;74472;51.140;17.184;2024-03-08T07:43:17;35.85;;;21.33;;
59876;SDS011;74472;51.140;17.184;2024-03-08T07:45:42;35.75;;;21.63;;
59876;SDS011;74472;51.140;17.184;2024-03-08T07:48:08;38.20;;;21.85;;
59876;SDS011;74472;51.140;17.184;2024-03-08T07:50:36;36.33;;;21.95;;
59876;SDS011;74472;51.140;17.184;2024-03-08T07:53:02;40.00;;;24.00;;
59876;SDS011;74472;51.140;17.184;2024-03-08T07:55:28;40.63;;;22.70;;
59876;SDS011;74472;51.140;17.184;2024-03-08T07:57:56;39.58;;;23.88;;
59876;SDS011;74472;51.140;17.184;2024-03-08T08:00:21;35.05;;;22.40;;
59876;SDS011;74472;51.140;17.184;2024-03-08T08:02:46;39.70;;;22.02;;
59876;SDS011;74472;51.140;17.184;2024-03-08T08:05:14;34.42;;;22.23;;
59876;SDS011;74472;51.140;17.184;2024-03-08T08:07:40;37.13;;;21.52;;
59876;SDS011;74472;51.140;17.184;2024-03-08T08:10:08;33.95;;;21.73;;
59876;SDS011;74472;51.140;17.184;2024-03-08T08:12:40;37.13;;;21.97;;
59876;SDS011;74472;51.140;17.184;2024-03-08T08:15:07;35.65;;;22.73;;
59876;SDS011;74472;51.140;17.184;2024-03-08T08:17:32;36.28;;;22.35;;
59876;SDS011;74472;51.140;17.184;2024-03-08T08:19:59;43.47;;;23.42;;
59876;SDS011;74472;51.140;17.184;2024-03-08T08:22:25;49.35;;;24.08;;
59876;SDS011;74472;51.140;17.184;2024-03-08T08:24:50;36.42;;;22.98;;
59876;SDS011;74472;51.140;17.184;2024-03-08T08:27:17;37.40;;;23.52;;
59876;SDS011;74472;51.140;17.184;2024-03-08T08:29:42;40.80;;;23.13;;
59876;SDS011;74472;51.140;17.184;2024-03-08T08:32:08;36.00;;;22.30;;
59876;SDS011;74472;51.140;17.184;2024-03-08T08:34:34;35.33;;;20.85;;
59876;SDS011;74472;51.140;17.184;2024-03-08T08:37:01;32.58;;;21.23;;
59876;SDS011;74472;51.140;17.184;2024-03-08T08:39:26;35.75;;;22.33;;
59876;SDS011;74472;51.140;17.184;2024-03-08T08:41:51;37.63;;;21.05;;
59876;SDS011;74472;51.140;17.184;2024-03-08T08:44:17;35.97;;;22.42;;
59876;SDS011;74472;51.140;17.184;2024-03-08T08:46:42;35.13;;;21.58;;
59876;SDS011;74472;51.140;17.184;2024-03-08T08:49:08;35.00;;;21.00;;
59876;SDS011;74472;51.140;17.184;2024-03-08T08:51:36;38.33;;;22.17;;
59876;SDS011;74472;51.140;17.184;2024-03-08T08:54:01;33.42;;;20.23;;
59876;SDS011;74472;51.140;17.184;2024-03-08T08:56:27;33.28;;;19.67;;
59876;SDS011;74472;51.140;17.184;2024-03-08T08:58:53;33.75;;;19.27;;
59876;SDS011;74472;51.140;17.184;2024-03-08T09:01:19;37.78;;;20.25;;
59876;SDS011;74472;51.140;17.184;2024-03-08T09:03:45;32.45;;;19.45;;
59876;SDS011;74472;51.140;17.184;2024-03-08T09:06:12;31.98;;;19.10;;
59876;SDS011;74472;51.140;17.184;2024-03-08T09:08:38;33.00;;;18.08;;
59876;SDS011;74472;51.140;17.184;2024-03-08T09:11:04;31.48;;;18.90;;
59876;SDS011;74472;51.140;17.184;2024-03-08T09:13:30;29.67;;;19.63;;
59876;SDS011;74472;51.140;17.184;2024-03-08T09:15:56;31.42;;;21.00;;
59876;SDS011;74472;51.140;17.184;2024-03-08T09:18:21;29.63;;;20.55;;
59876;SDS011;74472;51.140;17.184;2024-03-08T09:20:46;31.15;;;21.10;;
59876;SDS011;74472;51.140;17.184;2024-03-08T09:23:12;31.83;;;21.00;;
59876;SDS011;74472;51.140;17.184;2024-03-08T09:25:37;27.23;;;18.13;;
59876;SDS011;74472;51.140;17.184;2024-03-08T09:28:03;28.13;;;18.55;;
59876;SDS011;74472;51.140;17.184;2024-03-08T09:30:30;29.60;;;17.90;;
59876;SDS011;74472;51.140;17.184;2024-03-08T09:32:56;32.33;;;19.75;;
59876;SDS011;74472;51.140;17.184;2024-03-08T09:35:21;27.63;;;18.90;;
59876;SDS011;74472;51.140;17.184;2024-03-08T09:37:46;33.53;;;20.55;;
59876;SDS011;74472;51.140;17.184;2024-03-08T09:40:15;28.70;;;17.63;;
59876;SDS011;74472;51.140;17.184;2024-03-08T09:42:44;26.98;;;17.00;;
59876;SDS011;74472;51.140;17.184;2024-03-08T09:45:10;28.85;;;16.58;;
59876;SDS011;74472;51.140;17.184;2024-03-08T09:47:38;22.90;;;15.07;;
59876;SDS011;74472;51.140;17.184;2024-03-08T09:50:06;24.38;;;15.98;;
59876;SDS011;74472;51.140;17.184;2024-03-08T09:52:34;26.58;;;17.02;;
59876;SDS011;74472;51.140;17.184;2024-03-08T09:55:01;24.75;;;15.60;;
59876;SDS011;74472;51.140;17.184;2024-03-08T09:57:26;25.33;;;14.88;;
59876;SDS011;74472;51.140;17.184;2024-03-08T09:59:52;25.73;;;15.15;;
59876;SDS011;74472;51.140;17.184;2024-03-08T10:02:18;23.35;;;15.20;;
59876;SDS011;74472;51.140;17.184;2024-03-08T10:04:43;23.95;;;16.75;;
59876;SDS011;74472;51.140;17.184;2024-03-08T10:07:11;19.63;;;14.60;;
59876;SDS011;74472;51.140;17.184;2024-03-08T10:09:37;22.73;;;15.32;;
59876;SDS011;74472;51.140;17.184;2024-03-08T10:12:04;24.17;;;15.85;;
59876;SDS011;74472;51.140;17.184;2024-03-08T10:14:30;23.02;;;16.73;;
59876;SDS011;74472;51.140;17.184;2024-03-08T10:16:56;23.10;;;15.48;;
59876;SDS011;74472;51.140;17.184;2024-03-08T10:19:24;21.73;;;14.63;;
59876;SDS011;74472;51.140;17.184;2024-03-08T10:21:51;24.77;;;17.20;;
59876;SDS011;74472;51.140;17.184;2024-03-08T10:24:21;27.55;;;16.65;;
59876;SDS011;74472;51.140;17.184;2024-03-08T10:26:48;25.90;;;16.52;;
59876;SDS011;74472;51.140;17.184;2024-03-08T10:29:17;23.20;;;15.57;;
59876;SDS011;74472;51.140;17.184;2024-03-08T10:31:43;22.20;;;16.77;;
59876;SDS011;74472;51.140;17.184;2024-03-08T10:34:11;22.75;;;16.27;;
59876;SDS011;74472;51.140;17.184;2024-03-08T10:36:36;21.27;;;15.27;;
59876;SDS011;74472;51.140;17.184;2024-03-08T10:39:05;23.40;;;15.57;;
59876;SDS011;74472;51.140;17.184;2024-03-08T10:41:41;22.35;;;15.57;;
59876;SDS011;74472;51.140;17.184;2024-03-08T10:44:18;22.45;;;13.50;;
59876;SDS011;74472;51.140;17.184;2024-03-08T10:47:06;21.50;;;14.93;;
59876;SDS011;74472;51.140;17.184;2024-03-08T10:49:55;19.60;;;13.45;;
59876;SDS011;74472;51.140;17.184;2024-03-08T10:52:29;24.13;;;16.77;;
59876;SDS011;74472;51.140;17.184;2024-03-08T10:54:54;23.23;;;15.32;;
59876;SDS011;74472;51.140;17.184;2024-03-08T10:57:21;26.23;;;16.23;;
59876;SDS011;74472;51.140;17.184;2024-03-08T10:59:49;22.65;;;14.82;;
59876;SDS011;74472;51.140;17.184;2024-03-08T11:02:15;20.05;;;15.15;;
59876;SDS011;74472;51.140;17.184;2024-03-08T11:04:48;26.15;;;17.20;;
59876;SDS011;74472;51.140;17.184;2024-03-08T11:07:14;21.70;;;15.38;;
59876;SDS011;74472;51.140;17.184;2024-03-08T11:09:43;24.67;;;16.25;;
59876;SDS011;74472;51.140;17.184;2024-03-08T11:14:47;20.83;;;14.95;;
59876;SDS011;74472;51.140;17.184;2024-03-08T11:20:02;24.65;;;16.30;;
59876;SDS011;74472;51.140;17.184;2024-03-08T11:22:40;24.80;;;19.35;;
59876;SDS011;74472;51.140;17.184;2024-03-08T11:25:08;29.38;;;19.38;;
59876;SDS011;74472;51.140;17.184;2024-03-08T11:27:38;20.65;;;14.98;;
59876;SDS011;74472;51.140;17.184;2024-03-08T11:30:07;24.73;;;15.25;;
59876;SDS011;74472;51.140;17.184;2024-03-08T11:32:37;22.30;;;15.25;;
59876;SDS011;74472;51.140;17.184;2024-03-08T11:35:06;22.42;;;16.08;;
59876;SDS011;74472;51.140;17.184;2024-03-08T11:37:34;25.50;;;15.45;;
59876;SDS011;74472;51.140;17.184;2024-03-08T11:40:00;20.83;;;15.32;;
59876;SDS011;74472;51.140;17.184;2024-03-08T11:42:29;21.13;;;14.70;;
59876;SDS011;74472;51.140;17.184;2024-03-08T11:44:55;22.60;;;14.88;;
59876;SDS011;74472;51.140;17.184;2024-03-08T11:47:20;24.10;;;15.40;;
59876;SDS011;74472;51.140;17.184;2024-03-08T11:49:46;20.42;;;15.27;;
59876;SDS011;74472;51.140;17.184;2024-03-08T11:52:13;20.58;;;15.25;;
59876;SDS011;74472;51.140;17.184;2024-03-08T11:54:40;23.83;;;17.08;;
59876;SDS011;74472;51.140;17.184;2024-03-08T11:57:06;25.67;;;16.30;;
59876;SDS011;74472;51.140;17.184;2024-03-08T11:59:32;19.23;;;14.63;;
59876;SDS011;74472;51.140;17.184;2024-03-08T12:02:04;27.48;;;16.98;;
59876;SDS011;74472;51.140;17.184;2024-03-08T12:04:30;26.13;;;17.30;;
59876;SDS011;74472;51.140;17.184;2024-03-08T12:06:59;23.73;;;16.08;;
59876;SDS011;74472;51.140;17.184;2024-03-08T12:09:34;22.95;;;16.00;;
59876;SDS011;74472;51.140;17.184;2024-03-08T12:12:01;21.17;;;15.70;;
59876;SDS011;74472;51.140;17.184;2024-03-08T12:14:28;22.27;;;16.33;;
59876;SDS011;74472;51.140;17.184;2024-03-08T12:16:53;22.10;;;15.55;;
59876;SDS011;74472;51.140;17.184;2024-03-08T12:19:19;24.90;;;16.40;;
59876;SDS011;74472;51.140;17.184;2024-03-08T12:21:44;24.17;;;16.20;;
59876;SDS011;74472;51.140;17.184;2024-03-08T12:24:14;26.45;;;15.82;;
59876;SDS011;74472;51.140;17.184;2024-03-08T12:26:44;23.95;;;16.08;;
59876;SDS011;74472;51.140;17.184;2024-03-08T12:31:54;19.25;;;14.43;;
59876;SDS011;74472;51.140;17.184;2024-03-08T12:34:23;20.65;;;15.07;;
59876;SDS011;74472;51.140;17.184;2024-03-08T12:36:49;18.45;;;14.25;;
59876;SDS011;74472;51.140;17.184;2024-03-08T12:39:17;23.13;;;14.50;;
59876;SDS011;74472;51.140;17.184;2024-03-08T12:41:47;20.90;;;15.57;;
59876;SDS011;74472;51.140;17.184;2024-03-08T12:44:12;19.85;;;14.60;;
59876;SDS011;74472;51.140;17.184;2024-03-08T12:46:37;23.25;;;14.93;;
59876;SDS011;74472;51.140;17.184;2024-03-08T12:49:08;19.90;;;14.85;;
59876;SDS011;74472;51.140;17.184;2024-03-08T12:51:37;23.60;;;15.35;;
59876;SDS011;74472;51.140;17.184;2024-03-08T12:54:04;20.45;;;14.52;;
59876;SDS011;74472;51.140;17.184;2024-03-08T12:56:33;21.90;;;15.90;;
59876;SDS011;74472;51.140;17.184;2024-03-08T12:58:59;29.30;;;18.70;;
59876;SDS011;74472;51.140;17.184;2024-03-08T13:01:26;24.52;;;17.23;;
59876;SDS011;74472;51.140;17.184;2024-03-08T13:03:52;22.33;;;16.13;;
59876;SDS011;74472;51.140;17.184;2024-03-08T13:06:18;22.60;;;16.52;;
59876;SDS011;74472;51.140;17.184;2024-03-08T13:08:44;22.33;;;16.98;;
59876;SDS011;74472;51.140;17.184;2024-03-08T13:11:10;23.10;;;17.23;;
59876;SDS011;74472;51.140;17.184;2024-03-08T13:13:42;19.40;;;15.60;;
59876;SDS011;74472;51.140;17.184;2024-03-08T13:16:08;22.25;;;16.17;;
59876;SDS011;74472;51.140;17.184;2024-03-08T13:18:33;22.73;;;15.73;;
59876;SDS011;74472;51.140;17.184;2024-03-08T13:20:59;27.35;;;18.35;;
59876;SDS011;74472;51.140;17.184;2024-03-08T13:23:29;24.48;;;16.95;;
59876;SDS011;74472;51.140;17.184;2024-03-08T13:25:55;25.55;;;17.92;;
59876;SDS011;74472;51.140;17.184;2024-03-08T13:28:22;25.05;;;17.70;;
59876;SDS011;74472;51.140;17.184;2024-03-08T13:30:52;20.88;;;15.93;;
59876;SDS011;74472;51.140;17.184;2024-03-08T13:33:19;24.42;;;17.25;;
59876;SDS011;74472;51.140;17.184;2024-03-08T13:35:45;24.60;;;17.52;;
59876;SDS011;74472;51.140;17.184;2024-03-08T13:38:11;22.75;;;16.52;;
59876;SDS011;74472;51.140;17.184;2024-03-08T13:40:38;21.60;;;16.20;;
59876;SDS011;74472;51.140;17.184;2024-03-08T13:43:05;20.17;;;16.70;;
59876;SDS011;74472;51.140;17.184;2024-03-08T13:45:32;24.73;;;17.15;;
59876;SDS011;74472;51.140;17.184;2024-03-08T13:47:58;25.33;;;17.35;;
59876;SDS011;74472;51.140;17.184;2024-03-08T13:50:24;22.80;;;16.60;;
59876;SDS011;74472;51.140;17.184;2024-03-08T13:52:50;21.08;;;16.77;;
59876;SDS011;74472;51.140;17.184;2024-03-08T13:55:20;25.52;;;17.33;;
59876;SDS011;74472;51.140;17.184;2024-03-08T13:57:47;22.15;;;17.30;;
59876;SDS011;74472;51.140;17.184;2024-03-08T14:00:13;25.20;;;17.92;;
59876;SDS011;74472;51.140;17.184;2024-03-08T14:02:39;24.98;;;16.20;;
59876;SDS011;74472;51.140;17.184;2024-03-08T14:05:06;21.65;;;16.83;;
59876;SDS011;74472;51.140;17.184;2024-03-08T14:07:33;25.17;;;18.42;;
59876;SDS011;74472;51.140;17.184;2024-03-08T14:09:59;25.35;;;16.27;;
59876;SDS011;74472;51.140;17.184;2024-03-08T14:12:25;24.40;;;16.98;;
59876;SDS011;74472;51.140;17.184;2024-03-08T14:14:51;25.00;;;18.20;;
59876;SDS011;74472;51.140;17.184;2024-03-08T14:17:19;27.45;;;17.45;;